createdAt,value
2024-01-29T00:02:05.744Z,10.167785234899329
2024-01-29T00:05:25.877Z,9.859060402684564
2024-01-29T00:08:46.469Z,9.557046979865772
2024-01-29T00:12:06.537Z,9.973154362416107
2024-01-29T00:15:28.270Z,10.187919463087248
2024-01-29T00:18:48.228Z,9.026845637583893
2024-01-29T00:22:08.505Z,9.677852348993289
2024-01-29T00:25:29.010Z,9.483221476510067
2024-01-29T00:28:48.808Z,9.315436241610739
2024-01-29T00:32:09.562Z,8.93288590604027
2024-01-29T00:35:29.755Z,9.302013422818792
2024-01-29T00:38:49.806Z,8.624161073825503
2024-01-29T00:42:21.953Z,8.979865771812081
2024-01-29T00:45:42.594Z,8.281879194630873
2024-01-29T00:51:26.264Z,9.234899328859061
2024-01-29T00:54:46.734Z,8.684563758389261
2024-01-29T00:58:06.866Z,9.63758389261745
2024-01-29T01:01:28.670Z,9.483221476510067
2024-01-29T01:04:49.213Z,8.080536912751677
2024-01-29T01:08:08.489Z,9.697986577181208
2024-01-29T01:11:28.775Z,9.10738255033557
2024-01-29T01:14:48.730Z,8.59731543624161
2024-01-29T01:19:30.477Z,8.919463087248323
2024-01-29T01:22:52.073Z,8.322147651006711
2024-01-29T01:26:12.717Z,9.315436241610739
2024-01-29T01:29:32.707Z,8.375838926174497
2024-01-29T01:32:52.731Z,7.6375838926174495
2024-01-29T01:36:13.406Z,8.906040268456376
2024-01-29T01:39:33.529Z,10.630872483221477
2024-01-29T01:42:54.135Z,9.771812080536913
2024-01-29T01:46:15.244Z,8.463087248322148
2024-01-29T01:49:36.418Z,10.36241610738255
2024-01-29T01:52:56.716Z,11.40268456375839
2024-01-29T01:56:17.992Z,10.53020134228188
2024-01-29T01:59:38.272Z,9.416107382550335
2024-01-29T02:02:58.458Z,9.644295302013424
2024-01-29T02:06:18.521Z,8.912751677852349
2024-01-29T02:09:38.688Z,8.483221476510067
2024-01-29T02:12:58.232Z,7.865771812080537
2024-01-29T02:16:18.685Z,9.624161073825503
2024-01-29T02:21:49.314Z,11.208053691275168
2024-01-29T02:25:09.348Z,9.812080536912752
2024-01-29T02:28:31.101Z,9.624161073825503
2024-01-29T02:31:51.064Z,10.033557046979865
2024-01-29T02:35:11.934Z,10.93288590604027
2024-01-29T02:39:36.741Z,10.832214765100671
2024-01-29T02:42:57.191Z,10.456375838926174
2024-01-29T02:46:17.923Z,9.624161073825503
2024-01-29T02:54:38.878Z,9.651006711409396
2024-01-29T02:57:59.833Z,9.006711409395972
2024-01-29T03:01:20.860Z,9.161073825503356
2024-01-29T03:04:40.737Z,8.979865771812081
2024-01-29T03:08:00.642Z,8.845637583892618
2024-01-29T03:11:21.726Z,9.456375838926174
2024-01-29T03:14:42.184Z,8.570469798657719
2024-01-29T03:18:02.972Z,8.026845637583893
2024-01-29T03:21:24.522Z,7.315436241610739
2024-01-29T03:24:45.677Z,6.704697986577181
2024-01-29T03:28:05.389Z,6.583892617449664
2024-01-29T03:31:25.572Z,7.74496644295302
2024-01-29T03:34:45.942Z,7.671140939597316
2024-01-29T03:38:06.743Z,8.033557046979865
2024-01-29T03:41:27.394Z,7.23489932885906
2024-01-29T03:44:48.422Z,7.859060402684563
2024-01-29T03:49:27.161Z,7.617449664429531
2024-01-29T03:52:48.170Z,7.879194630872483
2024-01-29T03:56:08.998Z,6.281879194630872
2024-01-29T04:00:17.807Z,7.718120805369128
2024-01-29T04:03:38.187Z,7.885906040268456
2024-01-29T04:06:59.916Z,7.483221476510067
2024-01-29T04:10:20.544Z,7.476510067114094
2024-01-29T04:13:41.431Z,9.422818791946309
2024-01-29T04:17:02.116Z,7.261744966442953
2024-01-29T04:20:22.793Z,7.489932885906041
2024-01-29T04:23:42.238Z,7.355704697986577
2024-01-29T04:27:02.819Z,7.409395973154362
2024-01-29T04:30:23.957Z,7.167785234899329
2024-01-29T04:33:44.489Z,8.604026845637584
2024-01-29T04:37:05.531Z,8.751677852348994
2024-01-29T04:40:27.048Z,8.308724832214764
2024-01-29T04:43:48.468Z,7.429530201342282
2024-01-29T04:47:08.797Z,8.10738255033557
2024-01-29T04:50:30.109Z,8.114093959731544
2024-01-29T04:53:50.692Z,7.832214765100671
2024-01-29T04:57:11.217Z,7.966442953020135
2024-01-29T05:00:31.749Z,8.93288590604027
2024-01-29T05:03:51.769Z,8.36241610738255
2024-01-29T05:07:12.817Z,7.946308724832215
2024-01-29T05:10:33.464Z,8.120805369127517
2024-01-29T05:13:53.935Z,8.751677852348994
2024-01-29T05:19:40.678Z,7.281879194630872
2024-01-29T05:23:01.005Z,6.89261744966443
2024-01-29T05:26:21.682Z,6.436241610738255
2024-01-29T05:29:41.951Z,7.590604026845638
2024-01-29T05:33:31.609Z,8.114093959731544
2024-01-29T05:36:51.494Z,6.5369127516778525
2024-01-29T05:40:12.333Z,6.8389261744966445
2024-01-29T05:43:33.592Z,7.073825503355705
2024-01-29T05:46:53.911Z,6.778523489932886
2024-01-29T05:50:15.382Z,6.617449664429531
2024-01-29T05:54:03.269Z,6.449664429530201
2024-01-29T05:57:24.540Z,7.174496644295302
2024-01-29T06:00:45.229Z,7.0134228187919465
2024-01-29T06:04:05.828Z,7.10738255033557
2024-01-29T06:07:27.552Z,7.268456375838926
2024-01-29T06:10:49.410Z,6.3624161073825505
2024-01-29T06:14:10.211Z,7.597315436241611
2024-01-29T06:19:28.746Z,6.8389261744966445
2024-01-29T06:22:49.552Z,7.436241610738255
2024-01-29T06:26:10.216Z,7.248322147651007
2024-01-29T06:30:59.929Z,7.261744966442953
2024-01-29T06:34:20.658Z,7.067114093959732
2024-01-29T06:39:40.865Z,7.073825503355705
2024-01-29T06:45:27.446Z,7.167785234899329
2024-01-29T06:48:48.635Z,7.308724832214765
2024-01-29T06:52:12.527Z,7.97986577181208
2024-01-29T06:55:36.926Z,7.503355704697986
2024-01-29T06:58:57.692Z,7.060402684563758
2024-01-29T07:02:18.885Z,6.785234899328859
2024-01-29T07:05:39.339Z,7.530201342281879
2024-01-29T07:09:00.464Z,8.221476510067115
2024-01-29T07:12:21.937Z,10.503355704697986
2024-01-29T07:15:49.175Z,8.926174496644295
2024-01-29T07:20:46.357Z,7.23489932885906
2024-01-29T07:24:06.936Z,9.04026845637584
2024-01-29T07:27:27.384Z,8.946308724832214
2024-01-29T07:30:47.892Z,8.724832214765101
2024-01-29T07:34:08.635Z,7.885906040268456
2024-01-29T07:37:29.496Z,10.53020134228188
2024-01-29T07:40:49.237Z,9.979865771812081
2024-01-29T07:44:51.957Z,9.953020134228188
2024-01-29T07:50:22.472Z,9.100671140939598
2024-01-29T07:53:42.752Z,8.557046979865772
2024-01-29T07:57:27.481Z,8.691275167785236
2024-01-29T08:00:47.884Z,8.36241610738255
2024-01-29T08:04:08.243Z,10.389261744966444
2024-01-29T08:07:28.983Z,8.120805369127517
2024-01-29T08:10:49.868Z,8.120805369127517
2024-01-29T08:14:09.819Z,8.355704697986576
2024-01-29T08:19:18.030Z,8.36241610738255
2024-01-29T08:22:40.619Z,8.939597315436242
2024-01-29T08:26:00.888Z,8.778523489932885
2024-01-29T08:29:21.749Z,10.724832214765101
2024-01-29T08:32:41.653Z,8.986577181208053
2024-01-29T08:38:20.414Z,9.114093959731544
2024-01-29T08:41:40.725Z,9.060402684563758
2024-01-29T08:45:01.092Z,8.906040268456376
2024-01-29T08:48:22.068Z,9.06711409395973
2024-01-29T08:51:42.277Z,9.95973154362416
2024-01-29T08:55:02.498Z,9.134228187919463
2024-01-29T08:58:25.412Z,10.335570469798657
2024-01-29T09:04:14.393Z,10.241610738255034
2024-01-29T09:07:34.788Z,9.53020134228188
2024-01-29T09:12:52.789Z,10.536912751677852
2024-01-29T09:17:43.595Z,10.919463087248323
2024-01-29T09:21:03.533Z,11.120805369127517
2024-01-29T09:24:23.705Z,11.422818791946309
2024-01-29T09:27:44.696Z,10.375838926174497
2024-01-29T09:31:05.093Z,10.328859060402685
2024-01-29T09:34:26.581Z,9.087248322147651
2024-01-29T09:47:05.652Z,10.248322147651006
2024-01-29T09:50:26.259Z,11.161073825503356
2024-01-29T09:53:46.469Z,10.181208053691275
2024-01-29T09:57:06.982Z,10.348993288590604
2024-01-29T10:00:29.908Z,11.395973154362416
2024-01-29T10:03:51.376Z,10.154362416107382
2024-01-29T10:07:11.677Z,10.046979865771812
2024-01-29T10:10:32.732Z,9.906040268456376
2024-01-29T10:13:53.006Z,9.657718120805368
2024-01-29T10:17:13.846Z,9.59731543624161
2024-01-29T10:23:08.692Z,9.912751677852349
2024-01-29T10:26:29.864Z,10.268456375838927
2024-01-29T10:29:50.079Z,11.651006711409396
2024-01-29T10:33:10.855Z,10.315436241610739
2024-01-29T10:38:00.109Z,9.140939597315436
2024-01-29T10:41:20.903Z,10.543624161073826
2024-01-29T10:44:41.070Z,10.422818791946309
2024-01-29T10:48:01.266Z,10.993288590604028
2024-01-29T10:51:21.274Z,10.953020134228188
2024-01-29T10:54:41.883Z,12.805369127516778
2024-01-29T10:58:03.532Z,10.610738255033556
2024-01-29T11:02:03.807Z,11.463087248322148
2024-01-29T11:05:25.767Z,11.48993288590604
2024-01-29T11:08:46.511Z,11.201342281879194
2024-01-29T11:12:06.802Z,11.395973154362416
2024-01-29T11:15:27.600Z,10.751677852348994
2024-01-29T11:19:03.550Z,10.966442953020135
2024-01-29T11:24:39.020Z,10.778523489932885
2024-01-29T11:27:59.083Z,10.664429530201343
2024-01-29T11:35:54.861Z,12.080536912751677
2024-01-29T11:39:14.644Z,12.369127516778523
2024-01-29T11:42:35.143Z,13.187919463087248
2024-01-29T11:45:54.732Z,13.986577181208053
2024-01-29T11:49:14.920Z,14.684563758389261
2024-01-29T11:52:35.380Z,14.771812080536913
2024-01-29T11:55:55.665Z,14.51006711409396
2024-01-29T11:59:46.698Z,15.275167785234899
2024-01-29T12:03:07.562Z,15.40268456375839
2024-01-29T12:06:28.691Z,15.483221476510067
2024-01-29T12:09:48.148Z,15.026845637583893
2024-01-29T12:13:08.693Z,16.161073825503355
2024-01-29T12:17:06.415Z,15.154362416107382
2024-01-29T12:20:26.394Z,15.798657718120806
2024-01-29T12:23:52.358Z,16.483221476510067
2024-01-29T12:27:13.127Z,16.114093959731544
2024-01-29T12:30:33.080Z,17.308724832214764
2024-01-29T12:33:53.599Z,16.677852348993287
2024-01-29T12:37:14.159Z,19.42281879194631
2024-01-29T12:40:34.141Z,18.120805369127517
2024-01-29T12:43:54.020Z,17.23489932885906
2024-01-29T12:47:14.735Z,17.21476510067114
2024-01-29T12:50:34.618Z,16.302013422818792
2024-01-29T12:53:55.232Z,17.08053691275168
2024-01-29T13:00:36.413Z,17.624161073825505
2024-01-29T13:03:56.438Z,18.751677852348994
2024-01-29T13:07:18.441Z,16.624161073825505
2024-01-29T13:10:38.709Z,17.77181208053691
2024-01-29T13:13:59.831Z,16.79194630872483
2024-01-29T13:17:20.242Z,17.02013422818792
2024-01-29T13:21:24.415Z,16.80536912751678
2024-01-29T13:24:45.008Z,18.38255033557047
2024-01-29T13:30:03.463Z,18.436241610738254
2024-01-29T13:33:24.568Z,19.0
2024-01-29T13:36:45.242Z,17.34228187919463
2024-01-29T13:40:05.637Z,17.2751677852349
2024-01-29T13:43:26.525Z,17.71812080536913
2024-01-29T13:46:47.131Z,17.536912751677853
2024-01-29T13:50:07.500Z,17.530201342281877
2024-01-29T13:53:28.601Z,20.335570469798657
2024-01-29T13:56:48.893Z,19.38255033557047
2024-01-29T14:00:09.282Z,17.261744966442954
2024-01-29T14:03:30.358Z,17.322147651006713
2024-01-29T14:06:50.668Z,18.859060402684563
2024-01-29T14:10:10.924Z,22.322147651006713
2024-01-29T14:13:31.564Z,21.187919463087248
2024-01-29T14:16:51.892Z,20.161073825503355
2024-01-29T14:20:12.766Z,18.14765100671141
2024-01-29T14:23:33.741Z,21.55704697986577
2024-01-29T14:26:54.017Z,21.013422818791945
2024-01-29T14:30:14.765Z,22.355704697986578
2024-01-29T14:42:13.414Z,22.70469798657718
2024-01-29T14:45:34.340Z,23.456375838926174
2024-01-29T14:48:54.458Z,22.711409395973153
2024-01-29T14:52:14.965Z,24.38255033557047
2024-01-29T14:55:36.476Z,23.456375838926174
2024-01-29T14:58:56.964Z,23.355704697986578
2024-01-29T15:02:17.133Z,24.348993288590606
2024-01-29T15:05:38.532Z,25.7248322147651
2024-01-29T15:08:58.584Z,25.946308724832214
2024-01-29T15:15:06.685Z,26.369127516778523
2024-01-29T15:18:26.942Z,25.120805369127517
2024-01-29T15:21:47.150Z,22.946308724832214
2024-01-29T15:25:07.085Z,23.463087248322147
2024-01-29T15:28:27.912Z,25.651006711409394
2024-01-29T15:31:48.920Z,26.496644295302012
2024-01-29T15:35:09.371Z,26.140939597315437
2024-01-29T15:38:30.290Z,26.691275167785236
2024-01-29T15:46:42.022Z,24.610738255033556
2024-01-29T15:50:02.627Z,26.74496644295302
2024-01-29T15:53:23.571Z,26.973154362416107
2024-01-29T15:56:43.934Z,28.2751677852349
2024-01-29T16:02:29.129Z,37.77181208053691
2024-01-29T16:05:49.373Z,32.30201342281879
2024-01-29T16:09:59.320Z,32.785234899328856
2024-01-29T16:13:20.168Z,32.214765100671144
2024-01-29T16:16:41.267Z,31.624161073825505
2024-01-29T16:20:01.555Z,32.66442953020134
2024-01-29T16:27:59.061Z,32.59731543624161
2024-01-29T16:32:21.617Z,39.375838926174495
2024-01-29T16:36:46.626Z,39.718120805369125
2024-01-29T16:40:24.638Z,38.261744966442954
2024-01-29T16:43:45.697Z,40.73154362416108
2024-01-29T16:47:05.978Z,38.46308724832215
2024-01-29T16:50:26.651Z,39.06711409395973
2024-01-29T16:53:47.195Z,39.56375838926174
2024-01-29T16:57:07.780Z,34.49664429530201
2024-01-29T17:00:28.762Z,32.785234899328856
2024-01-29T17:03:48.912Z,34.09395973154363
2024-01-29T17:09:30.645Z,34.31543624161074
2024-01-29T17:15:10.477Z,33.38255033557047
2024-01-29T17:20:48.968Z,33.87248322147651
2024-01-29T17:24:22.964Z,34.852348993288594
2024-01-29T17:27:44.147Z,34.73154362416108
2024-01-29T17:31:04.152Z,33.45637583892618
2024-01-29T17:34:25.314Z,32.92617449664429
2024-01-29T17:37:46.208Z,32.241610738255034
2024-01-29T17:41:06.199Z,33.16778523489933
2024-01-29T17:44:26.806Z,33.395973154362416
2024-01-29T17:47:46.625Z,33.88590604026846
2024-01-29T17:51:06.657Z,33.946308724832214
2024-01-29T17:54:27.749Z,34.34228187919463
2024-01-29T17:57:48.088Z,31.93288590604027
2024-01-29T18:01:09.180Z,35.06711409395973
2024-01-29T18:04:30.167Z,33.43624161073826
2024-01-29T18:07:51.113Z,31.778523489932887
2024-01-29T18:11:11.782Z,32.214765100671144
2024-01-29T18:14:33.168Z,32.79194630872483
2024-01-29T18:17:53.667Z,33.738255033557046
2024-01-29T18:22:59.085Z,33.060402684563755
2024-01-29T18:26:20.181Z,34.45637583892618
2024-01-29T18:29:40.628Z,34.38926174496644
2024-01-29T18:33:01.399Z,36.006711409395976
2024-01-29T18:36:21.896Z,37.95302013422819
2024-01-29T18:40:06.108Z,35.711409395973156
2024-01-29T18:43:27.112Z,35.241610738255034
2024-01-29T18:46:48.000Z,36.81879194630873
2024-01-29T18:50:08.988Z,35.40268456375839
2024-01-29T18:54:22.043Z,35.4496644295302
2024-01-29T18:59:18.390Z,38.79194630872483
2024-01-29T19:05:43.007Z,42.0
2024-01-29T19:09:03.351Z,41.2751677852349
2024-01-29T19:12:24.316Z,47.40939597315436
2024-01-29T19:15:44.997Z,48.04026845637584
2024-01-29T19:19:05.417Z,41.50335570469799
2024-01-29T19:22:26.998Z,39.718120805369125
2024-01-29T19:25:46.920Z,42.48993288590604
2024-01-29T19:29:06.899Z,44.69798657718121
2024-01-29T19:32:27.748Z,41.40939597315436
2024-01-29T19:35:47.528Z,40.95302013422819
2024-01-29T19:39:07.598Z,42.89261744966443
2024-01-29T19:45:48.360Z,39.899328859060404
2024-01-29T19:49:08.294Z,42.41610738255034
2024-01-29T19:52:30.203Z,43.56375838926174
2024-01-29T19:56:10.416Z,44.59731543624161
2024-01-29T19:59:30.840Z,41.738255033557046
2024-01-29T20:02:50.849Z,42.644295302013425
2024-01-29T20:06:10.894Z,42.11409395973154
2024-01-29T20:09:32.007Z,41.77852348993289
2024-01-29T20:12:52.049Z,44.51677852348993
2024-01-29T20:16:12.773Z,43.18120805369127
2024-01-29T20:19:33.620Z,43.48322147651007
2024-01-29T20:22:54.525Z,44.84563758389262
2024-01-29T20:26:15.973Z,44.66442953020134
2024-01-29T20:29:36.573Z,43.785234899328856
2024-01-29T20:34:36.506Z,45.97986577181208
2024-01-29T20:37:57.195Z,45.59060402684564
2024-01-29T20:42:21.402Z,48.22818791946309
2024-01-29T20:46:57.804Z,47.07382550335571
2024-01-29T20:50:18.516Z,52.11409395973154
2024-01-29T20:53:39.670Z,52.20805369127517
2024-01-29T21:00:06.810Z,49.651006711409394
2024-01-29T21:03:27.144Z,49.23489932885906
2024-01-29T21:06:46.890Z,48.5503355704698
2024-01-29T21:13:23.232Z,48.40939597315436
2024-01-29T21:16:44.047Z,47.557046979865774
2024-01-29T21:20:05.159Z,48.033557046979865
2024-01-29T21:23:25.632Z,49.87919463087248
2024-01-29T21:26:46.512Z,48.738255033557046
2024-01-29T21:30:07.068Z,51.58389261744966
2024-01-29T21:33:27.953Z,48.288590604026844
2024-01-29T21:36:49.053Z,49.32214765100671
2024-01-29T21:40:09.550Z,50.92617449664429
2024-01-29T21:44:09.774Z,50.97986577181208
2024-01-29T21:47:30.715Z,51.08724832214765
2024-01-29T21:50:51.853Z,50.16778523489933
2024-01-29T21:54:12.946Z,52.43624161073826
2024-01-29T21:57:33.611Z,50.013422818791945
2024-01-29T22:00:55.408Z,51.422818791946305
2024-01-29T22:04:17.070Z,51.577181208053695
2024-01-29T22:07:37.411Z,51.56375838926174
2024-01-29T22:10:57.818Z,53.10738255033557
2024-01-29T22:14:18.492Z,53.76510067114094
2024-01-29T22:18:26.668Z,53.369127516778526
2024-01-29T22:21:46.931Z,53.033557046979865
2024-01-29T22:25:07.236Z,50.29530201342282
2024-01-29T22:28:28.026Z,51.966442953020135
2024-01-29T22:31:48.567Z,52.328859060402685
2024-01-29T22:35:08.997Z,51.16107382550336
2024-01-29T22:38:29.739Z,56.41610738255034
2024-01-29T22:41:49.983Z,55.214765100671144
2024-01-29T22:45:10.671Z,54.41610738255034
2024-01-29T22:48:31.126Z,51.946308724832214
2024-01-29T22:51:52.093Z,52.25503355704698
2024-01-29T22:55:12.858Z,50.261744966442954
2024-01-29T22:58:33.580Z,53.577181208053695
2024-01-29T23:01:54.111Z,52.852348993288594
2024-01-29T23:05:14.700Z,54.97986577181208
2024-01-29T23:09:10.606Z,56.4496644295302
2024-01-29T23:12:30.864Z,52.09395973154363
2024-01-29T23:15:51.458Z,49.946308724832214
2024-01-29T23:19:22.901Z,48.852348993288594
2024-01-29T23:22:43.237Z,49.45637583892618
2024-01-29T23:27:08.483Z,48.281879194630875
2024-01-29T23:31:51.122Z,49.22147651006711
2024-01-29T23:35:11.207Z,49.48322147651007
2024-01-29T23:44:14.044Z,49.97315436241611
2024-01-29T23:47:34.613Z,47.0
2024-01-29T23:50:54.800Z,49.02684563758389
2024-01-29T23:54:16.328Z,49.33557046979866
2024-01-29T23:57:36.552Z,47.95302013422819
